sensor_id;sensor_type;location;lat;lon;timestamp;P1;durP1;ratioP1;P2;durP2;ratioP2
22733;SDS011;11534;51.994;5.692;2023-04-23T00:01:46;1.40;;;1.30;;
22733;SDS011;11534;51.994;5.692;2023-04-23T00:04:12;1.35;;;1.25;;
22733;SDS011;11534;51.994;5.692;2023-04-23T00:06:43;2.67;;;1.63;;
22733;SDS011;11534;51.994;5.692;2023-04-23T00:09:11;1.55;;;1.45;;
22733;SDS011;11534;51.994;5.692;2023-04-23T00:11:39;2.85;;;1.63;;
22733;SDS011;11534;51.994;5.692;2023-04-23T00:14:04;1.77;;;1.30;;
22733;SDS011;11534;51.994;5.692;2023-04-23T00:16:30;1.17;;;1.10;;
22733;SDS011;11534;51.994;5.692;2023-04-23T00:18:57;2.17;;;1.98;;
22733;SDS011;11534;51.994;5.692;2023-04-23T00:21:22;1.02;;;1.00;;
22733;SDS011;11534;51.994;5.692;2023-04-23T00:23:48;1.05;;;0.95;;
22733;SDS011;11534;51.994;5.692;2023-04-23T00:26:13;0.98;;;0.98;;
22733;SDS011;11534;51.994;5.692;2023-04-23T00:28:39;1.45;;;1.35;;
22733;SDS011;11534;51.994;5.692;2023-04-23T00:31:04;1.75;;;1.65;;
22733;SDS011;11534;51.994;5.692;2023-04-23T00:33:31;0.90;;;0.90;;
22733;SDS011;11534;51.994;5.692;2023-04-23T00:35:57;1.08;;;0.98;;
22733;SDS011;11534;51.994;5.692;2023-04-23T00:38:22;0.90;;;0.90;;
22733;SDS011;11534;51.994;5.692;2023-04-23T00:40:50;1.75;;;1.65;;
22733;SDS011;11534;51.994;5.692;2023-04-23T00:43:16;0.80;;;0.80;;
22733;SDS011;11534;51.994;5.692;2023-04-23T00:45:43;0.90;;;0.90;;
22733;SDS011;11534;51.994;5.692;2023-04-23T00:48:08;0.98;;;0.98;;
22733;SDS011;11534;51.994;5.692;2023-04-23T00:50:36;1.35;;;1.17;;
22733;SDS011;11534;51.994;5.692;2023-04-23T00:53:01;1.10;;;1.05;;
22733;SDS011;11534;51.994;5.692;2023-04-23T00:55:27;0.60;;;0.60;;
22733;SDS011;11534;51.994;5.692;2023-04-23T00:57:53;0.90;;;0.90;;
22733;SDS011;11534;51.994;5.692;2023-04-23T01:00:19;1.30;;;1.25;;
22733;SDS011;11534;51.994;5.692;2023-04-23T01:02:45;1.27;;;1.17;;
22733;SDS011;11534;51.994;5.692;2023-04-23T01:05:12;1.10;;;1.10;;
22733;SDS011;11534;51.994;5.692;2023-04-23T01:07:40;1.95;;;1.10;;
22733;SDS011;11534;51.994;5.692;2023-04-23T01:10:08;0.82;;;0.82;;
22733;SDS011;11534;51.994;5.692;2023-04-23T01:12:34;1.40;;;1.30;;
22733;SDS011;11534;51.994;5.692;2023-04-23T01:15:01;1.52;;;1.30;;
22733;SDS011;11534;51.994;5.692;2023-04-23T01:17:26;1.23;;;1.08;;
22733;SDS011;11534;51.994;5.692;2023-04-23T01:19:52;0.80;;;0.80;;
22733;SDS011;11534;51.994;5.692;2023-04-23T01:22:18;0.98;;;0.90;;
22733;SDS011;11534;51.994;5.692;2023-04-23T01:24:45;1.55;;;1.45;;
22733;SDS011;11534;51.994;5.692;2023-04-23T01:27:11;1.00;;;0.90;;
22733;SDS011;11534;51.994;5.692;2023-04-23T01:29:37;1.40;;;1.30;;
22733;SDS011;11534;51.994;5.692;2023-04-23T01:32:04;1.55;;;1.40;;
22733;SDS011;11534;51.994;5.692;2023-04-23T01:34:31;1.40;;;1.13;;
22733;SDS011;11534;51.994;5.692;2023-04-23T01:37:00;1.58;;;1.25;;
22733;SDS011;11534;51.994;5.692;2023-04-23T01:39:27;1.30;;;1.20;;
22733;SDS011;11534;51.994;5.692;2023-04-23T01:41:53;1.52;;;1.42;;
22733;SDS011;11534;51.994;5.692;2023-04-23T01:44:19;1.83;;;1.40;;
22733;SDS011;11534;51.994;5.692;2023-04-23T01:46:45;1.27;;;1.17;;
22733;SDS011;11534;51.994;5.692;2023-04-23T01:49:11;0.82;;;0.82;;
22733;SDS011;11534;51.994;5.692;2023-04-23T01:51:37;0.90;;;0.90;;
22733;SDS011;11534;51.994;5.692;2023-04-23T01:54:02;0.93;;;0.93;;
22733;SDS011;11534;51.994;5.692;2023-04-23T01:56:28;0.98;;;0.95;;
22733;SDS011;11534;51.994;5.692;2023-04-23T01:58:54;0.90;;;0.90;;
22733;SDS011;11534;51.994;5.692;2023-04-23T02:01:20;1.13;;;1.08;;
22733;SDS011;11534;51.994;5.692;2023-04-23T02:03:48;0.93;;;0.70;;
22733;SDS011;11534;51.994;5.692;2023-04-23T02:06:14;1.10;;;1.00;;
22733;SDS011;11534;51.994;5.692;2023-04-23T02:08:40;1.77;;;1.67;;
22733;SDS011;11534;51.994;5.692;2023-04-23T02:11:06;0.85;;;0.85;;
22733;SDS011;11534;51.994;5.692;2023-04-23T02:13:32;0.82;;;0.82;;
22733;SDS011;11534;51.994;5.692;2023-04-23T02:15:58;1.02;;;0.75;;
22733;SDS011;11534;51.994;5.692;2023-04-23T02:18:23;1.05;;;1.05;;
22733;SDS011;11534;51.994;5.692;2023-04-23T02:20:49;0.93;;;0.93;;
22733;SDS011;11534;51.994;5.692;2023-04-23T02:23:15;1.35;;;1.27;;
22733;SDS011;11534;51.994;5.692;2023-04-23T02:25:40;0.88;;;0.85;;
22733;SDS011;11534;51.994;5.692;2023-04-23T02:28:07;0.75;;;0.70;;
22733;SDS011;11534;51.994;5.692;2023-04-23T02:30:35;1.52;;;1.42;;
22733;SDS011;11534;51.994;5.692;2023-04-23T02:33:02;1.10;;;0.90;;
22733;SDS011;11534;51.994;5.692;2023-04-23T02:35:28;0.68;;;0.68;;
22733;SDS011;11534;51.994;5.692;2023-04-23T02:37:53;0.95;;;0.90;;
22733;SDS011;11534;51.994;5.692;2023-04-23T02:40:20;1.27;;;1.23;;
22733;SDS011;11534;51.994;5.692;2023-04-23T02:42:45;0.73;;;0.73;;
22733;SDS011;11534;51.994;5.692;2023-04-23T02:45:11;1.00;;;0.98;;
22733;SDS011;11534;51.994;5.692;2023-04-23T02:47:37;0.60;;;0.60;;
22733;SDS011;11534;51.994;5.692;2023-04-23T02:50:06;1.15;;;1.05;;
22733;SDS011;11534;51.994;5.692;2023-04-23T02:52:32;1.00;;;0.88;;
22733;SDS011;11534;51.994;5.692;2023-04-23T02:54:58;0.98;;;0.70;;
22733;SDS011;11534;51.994;5.692;2023-04-23T02:57:25;0.80;;;0.80;;
22733;SDS011;11534;51.994;5.692;2023-04-23T02:59:52;1.05;;;1.05;;
22733;SDS011;11534;51.994;5.692;2023-04-23T03:02:17;1.58;;;1.48;;
22733;SDS011;11534;51.994;5.692;2023-04-23T03:04:43;0.60;;;0.60;;
22733;SDS011;11534;51.994;5.692;2023-04-23T03:07:09;0.68;;;0.68;;
22733;SDS011;11534;51.994;5.692;2023-04-23T03:09:37;1.70;;;1.60;;
22733;SDS011;11534;51.994;5.692;2023-04-23T03:12:03;1.17;;;1.15;;
22733;SDS011;11534;51.994;5.692;2023-04-23T03:14:29;0.70;;;0.68;;
22733;SDS011;11534;51.994;5.692;2023-04-23T03:16:54;1.00;;;1.00;;
22733;SDS011;11534;51.994;5.692;2023-04-23T03:19:20;1.08;;;1.08;;
22733;SDS011;11534;51.994;5.692;2023-04-23T03:21:46;0.85;;;0.85;;
22733;SDS011;11534;51.994;5.692;2023-04-23T03:24:11;0.90;;;0.90;;
22733;SDS011;11534;51.994;5.692;2023-04-23T03:26:37;0.75;;;0.75;;
22733;SDS011;11534;51.994;5.692;2023-04-23T03:29:03;0.80;;;0.80;;
22733;SDS011;11534;51.994;5.692;2023-04-23T03:31:30;1.27;;;1.15;;
22733;SDS011;11534;51.994;5.692;2023-04-23T03:33:55;0.63;;;0.63;;
22733;SDS011;11534;51.994;5.692;2023-04-23T03:36:21;1.13;;;1.13;;
22733;SDS011;11534;51.994;5.692;2023-04-23T03:38:47;1.05;;;0.95;;
22733;SDS011;11534;51.994;5.692;2023-04-23T03:41:12;0.90;;;0.90;;
22733;SDS011;11534;51.994;5.692;2023-04-23T03:43:38;0.80;;;0.80;;
22733;SDS011;11534;51.994;5.692;2023-04-23T03:46:03;1.85;;;1.25;;
22733;SDS011;11534;51.994;5.692;2023-04-23T03:48:29;0.85;;;0.80;;
22733;SDS011;11534;51.994;5.692;2023-04-23T03:50:56;0.68;;;0.68;;
22733;SDS011;11534;51.994;5.692;2023-04-23T03:53:22;1.00;;;1.00;;
22733;SDS011;11534;51.994;5.692;2023-04-23T03:55:47;0.60;;;0.60;;
22733;SDS011;11534;51.994;5.692;2023-04-23T03:58:13;0.60;;;0.60;;
22733;SDS011;11534;51.994;5.692;2023-04-23T04:00:39;0.50;;;0.50;;
22733;SDS011;11534;51.994;5.692;2023-04-23T04:03:05;0.70;;;0.68;;
22733;SDS011;11534;51.994;5.692;2023-04-23T04:05:33;0.73;;;0.73;;
22733;SDS011;11534;51.994;5.692;2023-04-23T04:07:59;0.82;;;0.82;;
22733;SDS011;11534;51.994;5.692;2023-04-23T04:10:25;0.57;;;0.57;;
22733;SDS011;11534;51.994;5.692;2023-04-23T04:12:51;0.70;;;0.60;;
22733;SDS011;11534;51.994;5.692;2023-04-23T04:15:19;0.85;;;0.85;;
22733;SDS011;11534;51.994;5.692;2023-04-23T04:17:45;0.77;;;0.77;;
22733;SDS011;11534;51.994;5.692;2023-04-23T04:20:11;0.52;;;0.52;;
22733;SDS011;11534;51.994;5.692;2023-04-23T04:22:36;0.88;;;0.88;;
22733;SDS011;11534;51.994;5.692;2023-04-23T04:25:02;0.60;;;0.60;;
22733;SDS011;11534;51.994;5.692;2023-04-23T04:27:29;1.13;;;1.02;;
22733;SDS011;11534;51.994;5.692;2023-04-23T04:29:57;0.73;;;0.73;;
22733;SDS011;11534;51.994;5.692;2023-04-23T04:32:25;0.60;;;0.60;;
22733;SDS011;11534;51.994;5.692;2023-04-23T04:34:51;0.80;;;0.80;;
22733;SDS011;11534;51.994;5.692;2023-04-23T04:37:17;0.75;;;0.75;;
22733;SDS011;11534;51.994;5.692;2023-04-23T04:39:42;0.70;;;0.70;;
22733;SDS011;11534;51.994;5.692;2023-04-23T04:42:08;0.98;;;0.98;;
22733;SDS011;11534;51.994;5.692;2023-04-23T04:44:34;0.90;;;0.70;;
22733;SDS011;11534;51.994;5.692;2023-04-23T04:47:01;0.60;;;0.57;;
22733;SDS011;11534;51.994;5.692;2023-04-23T04:49:26;0.60;;;0.60;;
22733;SDS011;11534;51.994;5.692;2023-04-23T04:51:52;0.98;;;0.98;;
22733;SDS011;11534;51.994;5.692;2023-04-23T04:54:18;0.80;;;0.80;;
22733;SDS011;11534;51.994;5.692;2023-04-23T04:56:44;0.77;;;0.77;;
22733;SDS011;11534;51.994;5.692;2023-04-23T04:59:10;0.82;;;0.82;;
22733;SDS011;11534;51.994;5.692;2023-04-23T05:01:36;0.73;;;0.73;;
22733;SDS011;11534;51.994;5.692;2023-04-23T05:04:02;0.98;;;0.93;;
22733;SDS011;11534;51.994;5.692;2023-04-23T05:06:27;1.60;;;1.52;;
22733;SDS011;11534;51.994;5.692;2023-04-23T05:08:53;0.70;;;0.70;;
22733;SDS011;11534;51.994;5.692;2023-04-23T05:11:19;0.75;;;0.75;;
22733;SDS011;11534;51.994;5.692;2023-04-23T05:13:45;0.70;;;0.70;;
22733;SDS011;11534;51.994;5.692;2023-04-23T05:16:12;0.80;;;0.80;;
22733;SDS011;11534;51.994;5.692;2023-04-23T05:18:38;0.55;;;0.55;;
22733;SDS011;11534;51.994;5.692;2023-04-23T05:21:04;0.57;;;0.57;;
22733;SDS011;11534;51.994;5.692;2023-04-23T05:23:31;0.35;;;0.35;;
22733;SDS011;11534;51.994;5.692;2023-04-23T05:25:57;0.93;;;0.93;;
22733;SDS011;11534;51.994;5.692;2023-04-23T05:28:23;0.68;;;0.68;;
22733;SDS011;11534;51.994;5.692;2023-04-23T05:30:49;1.88;;;1.45;;
22733;SDS011;11534;51.994;5.692;2023-04-23T05:33:15;0.80;;;0.80;;
22733;SDS011;11534;51.994;5.692;2023-04-23T05:35:41;1.05;;;1.02;;
22733;SDS011;11534;51.994;5.692;2023-04-23T05:38:07;0.65;;;0.65;;
22733;SDS011;11534;51.994;5.692;2023-04-23T05:40:33;0.63;;;0.63;;
22733;SDS011;11534;51.994;5.692;2023-04-23T05:42:59;0.50;;;0.50;;
22733;SDS011;11534;51.994;5.692;2023-04-23T05:45:25;0.60;;;0.60;;
22733;SDS011;11534;51.994;5.692;2023-04-23T05:47:51;1.10;;;0.70;;
22733;SDS011;11534;51.994;5.692;2023-04-23T05:50:16;0.60;;;0.52;;
22733;SDS011;11534;51.994;5.692;2023-04-23T05:52:42;0.50;;;0.50;;
22733;SDS011;11534;51.994;5.692;2023-04-23T05:55:08;0.80;;;0.80;;
22733;SDS011;11534;51.994;5.692;2023-04-23T05:57:37;0.68;;;0.68;;
22733;SDS011;11534;51.994;5.692;2023-04-23T06:00:03;1.38;;;0.85;;
22733;SDS011;11534;51.994;5.692;2023-04-23T06:02:30;0.47;;;0.47;;
22733;SDS011;11534;51.994;5.692;2023-04-23T06:04:57;0.77;;;0.77;;
22733;SDS011;11534;51.994;5.692;2023-04-23T06:07:23;0.75;;;0.50;;
22733;SDS011;11534;51.994;5.692;2023-04-23T06:09:49;0.60;;;0.60;;
22733;SDS011;11534;51.994;5.692;2023-04-23T06:12:14;0.70;;;0.70;;
22733;SDS011;11534;51.994;5.692;2023-04-23T06:14:40;0.52;;;0.52;;
22733;SDS011;11534;51.994;5.692;2023-04-23T06:17:06;0.68;;;0.68;;
22733;SDS011;11534;51.994;5.692;2023-04-23T06:19:31;0.75;;;0.75;;
22733;SDS011;11534;51.994;5.692;2023-04-23T06:21:57;0.35;;;0.35;;
22733;SDS011;11534;51.994;5.692;2023-04-23T06:24:22;0.40;;;0.40;;
22733;SDS011;11534;51.994;5.692;2023-04-23T06:26:48;0.60;;;0.60;;
22733;SDS011;11534;51.994;5.692;2023-04-23T06:29:14;0.40;;;0.40;;
22733;SDS011;11534;51.994;5.692;2023-04-23T06:31:39;0.73;;;0.60;;
22733;SDS011;11534;51.994;5.692;2023-04-23T06:34:05;0.60;;;0.60;;
22733;SDS011;11534;51.994;5.692;2023-04-23T06:36:31;0.60;;;0.60;;
22733;SDS011;11534;51.994;5.692;2023-04-23T06:38:57;0.70;;;0.70;;
22733;SDS011;11534;51.994;5.692;2023-04-23T06:41:23;0.70;;;0.70;;
22733;SDS011;11534;51.994;5.692;2023-04-23T06:43:48;0.52;;;0.52;;
22733;SDS011;11534;51.994;5.692;2023-04-23T06:46:14;0.40;;;0.40;;
22733;SDS011;11534;51.994;5.692;2023-04-23T06:48:40;0.50;;;0.50;;
22733;SDS011;11534;51.994;5.692;2023-04-23T06:51:05;1.25;;;1.17;;
22733;SDS011;11534;51.994;5.692;2023-04-23T06:53:31;0.60;;;0.60;;
22733;SDS011;11534;51.994;5.692;2023-04-23T06:55:57;1.45;;;1.35;;
22733;SDS011;11534;51.994;5.692;2023-04-23T06:58:22;0.50;;;0.50;;
22733;SDS011;11534;51.994;5.692;2023-04-23T07:00:55;0.60;;;0.60;;
22733;SDS011;11534;51.994;5.692;2023-04-23T07:03:31;0.77;;;0.77;;
22733;SDS011;11534;51.994;5.692;2023-04-23T07:05:57;0.60;;;0.60;;
22733;SDS011;11534;51.994;5.692;2023-04-23T07:08:22;0.52;;;0.52;;
22733;SDS011;11534;51.994;5.692;2023-04-23T07:10:48;0.40;;;0.40;;
22733;SDS011;11534;51.994;5.692;2023-04-23T07:13:14;0.75;;;0.75;;
22733;SDS011;11534;51.994;5.692;2023-04-23T07:15:40;0.52;;;0.52;;
22733;SDS011;11534;51.994;5.692;2023-04-23T07:18:06;0.50;;;0.50;;
22733;SDS011;11534;51.994;5.692;2023-04-23T07:20:32;0.40;;;0.40;;
22733;SDS011;11534;51.994;5.692;2023-04-23T07:22:58;0.57;;;0.57;;
22733;SDS011;11534;51.994;5.692;2023-04-23T07:25:24;0.70;;;0.68;;
22733;SDS011;11534;51.994;5.692;2023-04-23T07:27:51;0.68;;;0.68;;
22733;SDS011;11534;51.994;5.692;2023-04-23T07:30:18;0.55;;;0.52;;
22733;SDS011;11534;51.994;5.692;2023-04-23T07:32:44;0.95;;;0.70;;
22733;SDS011;11534;51.994;5.692;2023-04-23T07:35:10;0.57;;;0.57;;
22733;SDS011;11534;51.994;5.692;2023-04-23T07:37:36;0.50;;;0.50;;
22733;SDS011;11534;51.994;5.692;2023-04-23T07:40:02;0.70;;;0.70;;
22733;SDS011;11534;51.994;5.692;2023-04-23T07:42:29;0.55;;;0.55;;
22733;SDS011;11534;51.994;5.692;2023-04-23T07:44:55;0.40;;;0.40;;
22733;SDS011;11534;51.994;5.692;2023-04-23T07:47:21;0.50;;;0.50;;
22733;SDS011;11534;51.994;5.692;2023-04-23T07:49:47;0.55;;;0.55;;
22733;SDS011;11534;51.994;5.692;2023-04-23T07:52:12;0.70;;;0.70;;
22733;SDS011;11534;51.994;5.692;2023-04-23T07:54:39;0.80;;;0.80;;
22733;SDS011;11534;51.994;5.692;2023-04-23T07:57:05;0.40;;;0.40;;
22733;SDS011;11534;51.994;5.692;2023-04-23T07:59:30;0.43;;;0.43;;
22733;SDS011;11534;51.994;5.692;2023-04-23T08:01:56;1.30;;;1.20;;
22733;SDS011;11534;51.994;5.692;2023-04-23T08:04:22;0.73;;;0.73;;
22733;SDS011;11534;51.994;5.692;2023-04-23T08:06:47;1.05;;;0.88;;
22733;SDS011;11534;51.994;5.692;2023-04-23T08:09:13;0.82;;;0.80;;
22733;SDS011;11534;51.994;5.692;2023-04-23T08:11:39;0.70;;;0.70;;
22733;SDS011;11534;51.994;5.692;2023-04-23T08:14:05;0.70;;;0.70;;
22733;SDS011;11534;51.994;5.692;2023-04-23T08:16:31;0.47;;;0.47;;
22733;SDS011;11534;51.994;5.692;2023-04-23T08:18:56;0.77;;;0.52;;
22733;SDS011;11534;51.994;5.692;2023-04-23T08:21:22;0.40;;;0.40;;
22733;SDS011;11534;51.994;5.692;2023-04-23T08:23:49;0.77;;;0.77;;
22733;SDS011;11534;51.994;5.692;2023-04-23T08:26:15;0.50;;;0.50;;
22733;SDS011;11534;51.994;5.692;2023-04-23T08:28:41;0.55;;;0.55;;
22733;SDS011;11534;51.994;5.692;2023-04-23T08:31:06;1.05;;;0.73;;
22733;SDS011;11534;51.994;5.692;2023-04-23T08:33:32;0.77;;;0.77;;
22733;SDS011;11534;51.994;5.692;2023-04-23T08:35:57;0.60;;;0.60;;
22733;SDS011;11534;51.994;5.692;2023-04-23T08:38:23;1.20;;;1.10;;
22733;SDS011;11534;51.994;5.692;2023-04-23T08:40:49;0.93;;;0.90;;
22733;SDS011;11534;51.994;5.692;2023-04-23T08:43:20;0.70;;;0.70;;
22733;SDS011;11534;51.994;5.692;2023-04-23T08:45:55;0.50;;;0.50;;
22733;SDS011;11534;51.994;5.692;2023-04-23T08:48:28;0.38;;;0.38;;
22733;SDS011;11534;51.994;5.692;2023-04-23T08:50:54;0.45;;;0.45;;
22733;SDS011;11534;51.994;5.692;2023-04-23T08:53:22;0.43;;;0.43;;
22733;SDS011;11534;51.994;5.692;2023-04-23T08:55:53;0.93;;;0.93;;
22733;SDS011;11534;51.994;5.692;2023-04-23T08:58:20;0.47;;;0.47;;
22733;SDS011;11534;51.994;5.692;2023-04-23T09:00:47;0.60;;;0.55;;
22733;SDS011;11534;51.994;5.692;2023-04-23T09:03:14;0.95;;;0.90;;
22733;SDS011;11534;51.994;5.692;2023-04-23T09:05:40;0.60;;;0.60;;
22733;SDS011;11534;51.994;5.692;2023-04-23T09:08:07;0.82;;;0.65;;
22733;SDS011;11534;51.994;5.692;2023-04-23T09:10:36;0.45;;;0.45;;
22733;SDS011;11534;51.994;5.692;2023-04-23T09:13:03;1.00;;;0.95;;
22733;SDS011;11534;51.994;5.692;2023-04-23T09:15:29;0.52;;;0.52;;
22733;SDS011;11534;51.994;5.692;2023-04-23T09:17:55;0.30;;;0.30;;
22733;SDS011;11534;51.994;5.692;2023-04-23T09:20:22;0.32;;;0.32;;
22733;SDS011;11534;51.994;5.692;2023-04-23T09:22:48;0.60;;;0.60;;
22733;SDS011;11534;51.994;5.692;2023-04-23T09:25:18;0.77;;;0.50;;
22733;SDS011;11534;51.994;5.692;2023-04-23T09:27:46;0.47;;;0.47;;
22733;SDS011;11534;51.994;5.692;2023-04-23T09:30:14;0.47;;;0.47;;
22733;SDS011;11534;51.994;5.692;2023-04-23T09:32:41;0.80;;;0.63;;
22733;SDS011;11534;51.994;5.692;2023-04-23T09:35:07;0.50;;;0.50;;
22733;SDS011;11534;51.994;5.692;2023-04-23T09:37:35;0.63;;;0.50;;
22733;SDS011;11534;51.994;5.692;2023-04-23T09:40:02;1.15;;;1.08;;
22733;SDS011;11534;51.994;5.692;2023-04-23T09:42:30;0.35;;;0.35;;
22733;SDS011;11534;51.994;5.692;2023-04-23T09:45:15;1.05;;;0.68;;
22733;SDS011;11534;51.994;5.692;2023-04-23T09:47:47;0.52;;;0.47;;
22733;SDS011;11534;51.994;5.692;2023-04-23T09:50:36;0.70;;;0.70;;
22733;SDS011;11534;51.994;5.692;2023-04-23T09:53:04;1.05;;;1.00;;
22733;SDS011;11534;51.994;5.692;2023-04-23T09:55:32;1.10;;;0.85;;
22733;SDS011;11534;51.994;5.692;2023-04-23T09:58:04;0.40;;;0.40;;
22733;SDS011;11534;51.994;5.692;2023-04-23T10:00:35;0.63;;;0.63;;
22733;SDS011;11534;51.994;5.692;2023-04-23T10:03:02;0.52;;;0.40;;
22733;SDS011;11534;51.994;5.692;2023-04-23T10:05:29;0.30;;;0.30;;
22733;SDS011;11534;51.994;5.692;2023-04-23T10:07:55;0.22;;;0.22;;
22733;SDS011;11534;51.994;5.692;2023-04-23T10:10:24;0.60;;;0.60;;
22733;SDS011;11534;51.994;5.692;2023-04-23T10:12:50;0.30;;;0.30;;
22733;SDS011;11534;51.994;5.692;2023-04-23T10:15:22;0.20;;;0.20;;
22733;SDS011;11534;51.994;5.692;2023-04-23T10:17:50;0.90;;;0.57;;
22733;SDS011;11534;51.994;5.692;2023-04-23T10:20:16;0.40;;;0.40;;
22733;SDS011;11534;51.994;5.692;2023-04-23T10:22:46;0.63;;;0.60;;
22733;SDS011;11534;51.994;5.692;2023-04-23T10:25:12;0.30;;;0.30;;
22733;SDS011;11534;51.994;5.692;2023-04-23T10:27:39;0.20;;;0.20;;
22733;SDS011;11534;51.994;5.692;2023-04-23T10:30:11;0.35;;;0.35;;
22733;SDS011;11534;51.994;5.692;2023-04-23T10:32:38;0.35;;;0.35;;
22733;SDS011;11534;51.994;5.692;2023-04-23T10:35:04;0.30;;;0.30;;
22733;SDS011;11534;51.994;5.692;2023-04-23T10:37:32;0.55;;;0.55;;
22733;SDS011;11534;51.994;5.692;2023-04-23T10:40:02;0.70;;;0.68;;
22733;SDS011;11534;51.994;5.692;2023-04-23T10:42:35;0.65;;;0.65;;
22733;SDS011;11534;51.994;5.692;2023-04-23T10:45:06;1.30;;;0.35;;
22733;SDS011;11534;51.994;5.692;2023-04-23T10:47:37;0.40;;;0.25;;
22733;SDS011;11534;51.994;5.692;2023-04-23T10:50:22;0.90;;;0.63;;
22733;SDS011;11534;51.994;5.692;2023-04-23T10:52:50;1.35;;;0.82;;
22733;SDS011;11534;51.994;5.692;2023-04-23T10:55:27;0.73;;;0.50;;
22733;SDS011;11534;51.994;5.692;2023-04-23T10:57:55;1.52;;;0.95;;
22733;SDS011;11534;51.994;5.692;2023-04-23T11:00:22;0.25;;;0.25;;
22733;SDS011;11534;51.994;5.692;2023-04-23T11:02:48;0.40;;;0.40;;
22733;SDS011;11534;51.994;5.692;2023-04-23T11:05:15;0.20;;;0.20;;
22733;SDS011;11534;51.994;5.692;2023-04-23T11:07:41;0.28;;;0.28;;
22733;SDS011;11534;51.994;5.692;2023-04-23T11:10:16;1.13;;;1.13;;
22733;SDS011;11534;51.994;5.692;2023-04-23T11:12:42;0.20;;;0.20;;
22733;SDS011;11534;51.994;5.692;2023-04-23T11:15:09;0.40;;;0.40;;
22733;SDS011;11534;51.994;5.692;2023-04-23T11:20:13;0.40;;;0.40;;
22733;SDS011;11534;51.994;5.692;2023-04-23T11:22:42;0.30;;;0.30;;
22733;SDS011;11534;51.994;5.692;2023-04-23T11:25:13;0.30;;;0.30;;
22733;SDS011;11534;51.994;5.692;2023-04-23T11:27:43;0.20;;;0.20;;
22733;SDS011;11534;51.994;5.692;2023-04-23T11:30:13;0.30;;;0.30;;
22733;SDS011;11534;51.994;5.692;2023-04-23T11:32:41;0.38;;;0.38;;
22733;SDS011;11534;51.994;5.692;2023-04-23T11:35:09;0.43;;;0.22;;
22733;SDS011;11534;51.994;5.692;2023-04-23T11:37:38;0.20;;;0.20;;
22733;SDS011;11534;51.994;5.692;2023-04-23T11:40:05;0.47;;;0.47;;
22733;SDS011;11534;51.994;5.692;2023-04-23T11:42:39;0.90;;;0.20;;
22733;SDS011;11534;51.994;5.692;2023-04-23T11:45:23;0.45;;;0.45;;
22733;SDS011;11534;51.994;5.692;2023-04-23T11:47:51;0.30;;;0.30;;
22733;SDS011;11534;51.994;5.692;2023-04-23T11:50:25;0.52;;;0.52;;
22733;SDS011;11534;51.994;5.692;2023-04-23T11:52:56;0.50;;;0.32;;
22733;SDS011;11534;51.994;5.692;2023-04-23T11:55:28;0.30;;;0.30;;
22733;SDS011;11534;51.994;5.692;2023-04-23T11:57:55;0.22;;;0.22;;
22733;SDS011;11534;51.994;5.692;2023-04-23T12:00:22;0.20;;;0.20;;
22733;SDS011;11534;51.994;5.692;2023-04-23T12:05:22;0.30;;;0.30;;
22733;SDS011;11534;51.994;5.692;2023-04-23T12:08:16;0.85;;;0.40;;
22733;SDS011;11534;51.994;5.692;2023-04-23T12:10:50;0.30;;;0.30;;
22733;SDS011;11534;51.994;5.692;2023-04-23T12:13:23;0.35;;;0.35;;
22733;SDS011;11534;51.994;5.692;2023-04-23T12:15:55;0.30;;;0.30;;
22733;SDS011;11534;51.994;5.692;2023-04-23T12:18:39;1.10;;;0.40;;
22733;SDS011;11534;51.994;5.692;2023-04-23T12:21:08;0.30;;;0.30;;
22733;SDS011;11534;51.994;5.692;2023-04-23T12:23:38;0.38;;;0.30;;
22733;SDS011;11534;51.994;5.692;2023-04-23T12:26:11;1.10;;;0.30;;
22733;SDS011;11534;51.994;5.692;2023-04-23T12:28:52;0.20;;;0.20;;
22733;SDS011;11534;51.994;5.692;2023-04-23T12:31:23;1.42;;;0.30;;
22733;SDS011;11534;51.994;5.692;2023-04-23T12:36:27;0.47;;;0.35;;
22733;SDS011;11534;51.994;5.692;2023-04-23T12:38:54;0.30;;;0.30;;
22733;SDS011;11534;51.994;5.692;2023-04-23T12:41:40;0.25;;;0.25;;
22733;SDS011;11534;51.994;5.692;2023-04-23T12:44:05;0.20;;;0.20;;
22733;SDS011;11534;51.994;5.692;2023-04-23T12:46:31;0.50;;;0.50;;
22733;SDS011;11534;51.994;5.692;2023-04-23T12:48:57;0.20;;;0.20;;
22733;SDS011;11534;51.994;5.692;2023-04-23T12:51:22;0.20;;;0.20;;
22733;SDS011;11534;51.994;5.692;2023-04-23T12:53:48;1.80;;;0.50;;
22733;SDS011;11534;51.994;5.692;2023-04-23T12:56:15;0.20;;;0.20;;
22733;SDS011;11534;51.994;5.692;2023-04-23T12:58:40;0.20;;;0.20;;
22733;SDS011;11534;51.994;5.692;2023-04-23T13:01:06;0.35;;;0.30;;
22733;SDS011;11534;51.994;5.692;2023-04-23T13:03:32;0.20;;;0.20;;
22733;SDS011;11534;51.994;5.692;2023-04-23T13:05:57;0.30;;;0.30;;
22733;SDS011;11534;51.994;5.692;2023-04-23T13:08:23;0.30;;;0.30;;
22733;SDS011;11534;51.994;5.692;2023-04-23T13:10:48;0.73;;;0.40;;
22733;SDS011;11534;51.994;5.692;2023-04-23T13:13:14;0.20;;;0.20;;
22733;SDS011;11534;51.994;5.692;2023-04-23T13:15:40;0.57;;;0.32;;
22733;SDS011;11534;51.994;5.692;2023-04-23T13:18:06;0.40;;;0.40;;
22733;SDS011;11534;51.994;5.692;2023-04-23T13:20:32;0.40;;;0.40;;
22733;SDS011;11534;51.994;5.692;2023-04-23T13:22:57;0.30;;;0.30;;
22733;SDS011;11534;51.994;5.692;2023-04-23T13:25:23;0.30;;;0.30;;
22733;SDS011;11534;51.994;5.692;2023-04-23T13:27:49;0.75;;;0.43;;
22733;SDS011;11534;51.994;5.692;2023-04-23T13:30:14;0.47;;;0.40;;
22733;SDS011;11534;51.994;5.692;2023-04-23T13:32:40;0.22;;;0.22;;
22733;SDS011;11534;51.994;5.692;2023-04-23T13:35:06;0.22;;;0.22;;
22733;SDS011;11534;51.994;5.692;2023-04-23T13:37:32;1.55;;;0.45;;
22733;SDS011;11534;51.994;5.692;2023-04-23T13:39:57;0.25;;;0.25;;
22733;SDS011;11534;51.994;5.692;2023-04-23T13:42:23;0.20;;;0.20;;
22733;SDS011;11534;51.994;5.692;2023-04-23T13:44:49;0.47;;;0.47;;
22733;SDS011;11534;51.994;5.692;2023-04-23T13:47:14;0.57;;;0.50;;
22733;SDS011;11534;51.994;5.692;2023-04-23T13:49:40;0.30;;;0.30;;
22733;SDS011;11534;51.994;5.692;2023-04-23T13:52:06;0.30;;;0.30;;
22733;SDS011;11534;51.994;5.692;2023-04-23T13:54:32;0.30;;;0.30;;
22733;SDS011;11534;51.994;5.692;2023-04-23T13:56:59;0.80;;;0.60;;
22733;SDS011;11534;51.994;5.692;2023-04-23T13:59:25;0.45;;;0.35;;
22733;SDS011;11534;51.994;5.692;2023-04-23T14:01:50;2.50;;;0.40;;
22733;SDS011;11534;51.994;5.692;2023-04-23T14:04:17;0.57;;;0.32;;
22733;SDS011;11534;51.994;5.692;2023-04-23T14:06:43;0.30;;;0.30;;
22733;SDS011;11534;51.994;5.692;2023-04-23T14:09:09;0.20;;;0.20;;
22733;SDS011;11534;51.994;5.692;2023-04-23T14:11:35;0.20;;;0.20;;
22733;SDS011;11534;51.994;5.692;2023-04-23T14:14:01;0.57;;;0.50;;
22733;SDS011;11534;51.994;5.692;2023-04-23T14:16:27;0.55;;;0.40;;
22733;SDS011;11534;51.994;5.692;2023-04-23T14:18:52;0.73;;;0.73;;
22733;SDS011;11534;51.994;5.692;2023-04-23T14:21:18;0.30;;;0.30;;
22733;SDS011;11534;51.994;5.692;2023-04-23T14:26:20;0.32;;;0.32;;
22733;SDS011;11534;51.994;5.692;2023-04-23T14:28:56;0.20;;;0.20;;
22733;SDS011;11534;51.994;5.692;2023-04-23T14:31:27;0.30;;;0.30;;
22733;SDS011;11534;51.994;5.692;2023-04-23T14:33:54;0.20;;;0.20;;
22733;SDS011;11534;51.994;5.692;2023-04-23T14:36:23;1.08;;;0.50;;
22733;SDS011;11534;51.994;5.692;2023-04-23T14:38:49;0.30;;;0.30;;
22733;SDS011;11534;51.994;5.692;2023-04-23T14:41:14;0.22;;;0.22;;
22733;SDS011;11534;51.994;5.692;2023-04-23T14:43:40;0.40;;;0.30;;
22733;SDS011;11534;51.994;5.692;2023-04-23T14:46:05;0.10;;;0.10;;
22733;SDS011;11534;51.994;5.692;2023-04-23T14:48:31;0.30;;;0.30;;
22733;SDS011;11534;51.994;5.692;2023-04-23T14:50:57;0.20;;;0.20;;
22733;SDS011;11534;51.994;5.692;2023-04-23T14:53:22;0.63;;;0.40;;
22733;SDS011;11534;51.994;5.692;2023-04-23T14:55:48;0.20;;;0.20;;
22733;SDS011;11534;51.994;5.692;2023-04-23T14:58:14;0.20;;;0.20;;